Time;durP1;ratioP1;P1;durP2;ratioP2;P2;SDS_P1;SDS_P2;PMS_P1;PMS_P2;Temp;Humidity;BMP_temperature;BMP_pressure;BME280_temperature;BME280_humidity;BME280_pressure;Samples;Min_cycle;Max_cycle;Signal;HPM_P1;HPM_P2
2022/04/21 00:00:35;;;;;;;;;;;10.30;33.70;;;;;;4982849;28;19955;-74
2022/04/21 00:03:04;;;;;;;;;;;10.20;33.90;;;;;;4978247;28;19990;-74
2022/04/21 00:05:31;;;;;;;;;;;10.10;34.20;;;;;;4978434;28;19973;-75
2022/04/21 00:07:57;;;;;;;;;;;10.10;34.50;;;;;;4980247;28;19926;-75
2022/04/21 00:10:25;;;;;;;;;;;10.10;34.80;;;;;;4975450;28;20005;-75
2022/04/21 00:12:52;;;;;;;;;;;10.00;34.90;;;;;;4983968;28;19926;-75
2022/04/21 00:15:18;;;;;;;;;;;10.00;34.90;;;;;;4975386;28;19937;-75
2022/04/21 00:17:45;;;;;;;;;;;10.00;34.90;;;;;;4976756;28;19932;-76
2022/04/21 00:20:13;;;;;;;;;;;10.00;35.10;;;;;;4983716;28;19926;-74
2022/04/21 00:25:26;;;;;;;;;;;10.00;35.40;;;;;;4987167;28;19934;-75
2022/04/21 00:27:54;;;;;;;;;;;10.00;35.50;;;;;;4986046;28;20021;-76
2022/04/21 00:30:20;;;;;;;;;;;10.00;35.60;;;;;;4976198;28;19967;-75
2022/04/21 00:32:47;;;;;;;;;;;9.90;36.50;;;;;;4973958;28;19961;-76
2022/04/21 00:35:15;;;;;;;;;;;9.90;36.70;;;;;;4987915;28;19926;-75
2022/04/21 00:37:49;;;;;;;;;;;9.80;36.90;;;;;;4981640;28;19926;-75
2022/04/21 00:40:16;;;;;;;;;;;9.80;37.00;;;;;;4984198;28;19957;-75
2022/04/21 00:42:44;;;;;;;;;;;9.80;37.00;;;;;;4972466;28;19926;-75
2022/04/21 00:45:10;;;;;;;;;;;9.80;37.30;;;;;;4984848;28;19986;-74
2022/04/21 00:47:42;;;;;;;;;;;9.80;37.50;;;;;;4977961;28;19926;-75
2022/04/21 00:50:10;;;;;;;;;;;9.70;37.60;;;;;;4974720;28;19956;-75
2022/04/21 00:52:38;;;;;;;;;;;9.70;37.90;;;;;;4981349;28;19926;-76
2022/04/21 00:55:05;;;;;;;;;;;9.70;38.00;;;;;;4978658;28;19932;-75
2022/04/21 00:57:32;;;;;;;;;;;9.60;38.20;;;;;;4984541;28;19925;-74
2022/04/21 00:59:59;;;;;;;;;;;9.60;38.40;;;;;;4983838;28;19926;-76
2022/04/21 01:05:11;;;;;;;;;;;9.40;39.40;;;;;;4975411;28;20408;-74
2022/04/21 01:07:39;;;;;;;;;;;9.40;39.80;;;;;;4980520;28;19938;-74
2022/04/21 01:10:08;;;;;;;;;;;9.40;40.10;;;;;;4979165;28;20020;-75
2022/04/21 01:12:35;;;;;;;;;;;9.30;40.50;;;;;;4984140;28;19926;-75
2022/04/21 01:15:01;;;;;;;;;;;9.30;41.00;;;;;;4981242;28;20013;-77
2022/04/21 01:17:31;;;;;;;;;;;9.30;41.50;;;;;;4978837;28;20455;-74
2022/04/21 01:19:58;;;;;;;;;;;9.20;41.70;;;;;;4988020;28;20016;-74
2022/04/21 01:22:26;;;;;;;;;;;9.30;41.90;;;;;;4991817;28;19932;-74
2022/04/21 01:24:52;;;;;;;;;;;9.30;42.00;;;;;;4992734;28;19930;-74
2022/04/21 01:27:23;;;;;;;;;;;9.20;42.20;;;;;;4985558;28;20025;-74
2022/04/21 01:29:49;;;;;;;;;;;9.20;42.50;;;;;;4972237;28;19930;-75
2022/04/21 01:32:16;;;;;;;;;;;9.20;42.60;;;;;;4975620;28;20391;-75
2022/04/21 01:34:43;;;;;;;;;;;9.30;42.70;;;;;;4976894;28;20760;-75
2022/04/21 01:42:39;;;;;;;;;;;9.20;43.40;;;;;;4988963;28;20288;-75
2022/04/21 01:45:06;;;;;;;;;;;9.20;43.40;;;;;;4977198;28;20304;-75
2022/04/21 01:47:33;;;;;;;;;;;9.10;43.70;;;;;;4981109;28;20278;-76
2022/04/21 01:50:00;;;;;;;;;;;9.10;44.00;;;;;;4980919;28;20360;-75
2022/04/21 01:52:26;;;;;;;;;;;9.10;44.00;;;;;;4979446;28;19933;-75
2022/04/21 01:54:54;;;;;;;;;;;9.10;44.30;;;;;;4979060;28;19926;-76
2022/04/21 01:57:22;;;;;;;;;;;9.10;44.30;;;;;;4974594;28;19933;-75
2022/04/21 01:59:49;;;;;;;;;;;9.10;44.30;;;;;;4983832;28;19962;-75
2022/04/21 02:02:16;;;;;;;;;;;9.10;44.70;;;;;;4974808;28;20364;-74
2022/04/21 02:04:43;;;;;;;;;;;9.00;45.10;;;;;;4984245;28;19969;-74
2022/04/21 02:07:09;;;;;;;;;;;9.00;45.40;;;;;;4988288;28;19937;-75
2022/04/21 02:09:36;;;;;;;;;;;8.90;45.70;;;;;;4989179;28;20017;-74
2022/04/21 02:12:06;;;;;;;;;;;8.90;46.00;;;;;;4976681;28;19930;-75
2022/04/21 02:14:33;;;;;;;;;;;8.90;46.30;;;;;;4981167;28;19930;-75
2022/04/21 02:17:00;;;;;;;;;;;8.90;46.70;;;;;;4991488;28;19930;-75
2022/04/21 02:19:29;;;;;;;;;;;8.80;47.00;;;;;;4988197;28;19926;-75
2022/04/21 02:21:56;;;;;;;;;;;8.80;47.50;;;;;;4982931;28;20020;-74
2022/04/21 02:24:22;;;;;;;;;;;8.80;47.90;;;;;;4972018;28;19933;-75
2022/04/21 02:26:49;;;;;;;;;;;8.80;48.20;;;;;;4987267;28;20396;-74
2022/04/21 02:29:17;;;;;;;;;;;8.70;48.50;;;;;;4988464;28;19934;-74
2022/04/21 02:31:44;;;;;;;;;;;8.70;48.90;;;;;;4976671;28;19933;-74
2022/04/21 02:34:10;;;;;;;;;;;8.70;49.30;;;;;;4979686;28;20013;-73
2022/04/21 02:36:38;;;;;;;;;;;8.70;49.80;;;;;;4987246;28;19965;-74
2022/04/21 02:39:05;;;;;;;;;;;8.60;50.10;;;;;;4983264;28;19926;-74
2022/04/21 02:41:32;;;;;;;;;;;8.60;50.70;;;;;;4974818;28;19927;-74
2022/04/21 02:43:59;;;;;;;;;;;8.50;51.10;;;;;;4984161;28;19926;-75
2022/04/21 02:46:29;;;;;;;;;;;8.50;51.70;;;;;;4987915;28;19932;-74
2022/04/21 02:48:56;;;;;;;;;;;8.50;52.30;;;;;;4973314;28;19926;-75
2022/04/21 02:51:23;;;;;;;;;;;8.40;53.00;;;;;;4995828;28;19942;-75
2022/04/21 02:59:20;;;;;;;;;;;8.20;56.40;;;;;;4986783;28;20278;-76
2022/04/21 03:01:50;;;;;;;;;;;8.20;57.10;;;;;;4963732;28;19927;-74
2022/04/21 03:04:17;;;;;;;;;;;8.20;57.60;;;;;;4972855;28;20017;-75
2022/04/21 03:06:43;;;;;;;;;;;8.20;58.00;;;;;;4970387;28;19933;-75
2022/04/21 03:09:10;;;;;;;;;;;8.10;58.80;;;;;;4986638;28;20016;-74
2022/04/21 03:11:37;;;;;;;;;;;8.10;59.50;;;;;;4992612;28;20013;-73
2022/04/21 03:14:03;;;;;;;;;;;8.10;60.20;;;;;;4984484;28;20024;-74
2022/04/21 03:16:30;;;;;;;;;;;8.00;61.00;;;;;;4989116;28;20300;-74
2022/04/21 03:18:58;;;;;;;;;;;8.00;62.40;;;;;;4988173;28;19933;-75
2022/04/21 03:24:21;;;;;;;;;;;7.90;65.70;;;;;;4982117;28;19949;-74
2022/04/21 03:26:48;;;;;;;;;;;7.90;66.40;;;;;;4982229;28;19933;-74
2022/04/21 03:29:15;;;;;;;;;;;7.90;67.60;;;;;;4980753;28;20353;-74
2022/04/21 03:31:43;;;;;;;;;;;7.80;68.80;;;;;;4986210;28;20005;-74
2022/04/21 03:34:12;;;;;;;;;;;7.80;70.70;;;;;;4971140;28;19937;-74
2022/04/21 03:36:40;;;;;;;;;;;7.80;72.20;;;;;;4976741;28;20015;-74
2022/04/21 03:39:07;;;;;;;;;;;7.70;72.90;;;;;;4981516;28;19926;-74
2022/04/21 03:41:34;;;;;;;;;;;7.70;73.80;;;;;;4987414;28;19932;-74
2022/04/21 03:44:00;;;;;;;;;;;7.70;74.80;;;;;;4986003;28;19934;-74
2022/04/21 03:46:27;;;;;;;;;;;7.70;76.10;;;;;;4986407;28;19948;-74
2022/04/21 03:48:54;;;;;;;;;;;7.80;76.30;;;;;;4985059;28;20475;-74
2022/04/21 03:51:22;;;;;;;;;;;7.70;76.90;;;;;;4972543;28;19989;-74
2022/04/21 03:53:48;;;;;;;;;;;7.70;77.80;;;;;;4998637;28;20014;-75
2022/04/21 03:56:15;;;;;;;;;;;7.80;78.30;;;;;;4972258;28;19927;-74
2022/04/21 03:58:41;;;;;;;;;;;7.80;78.40;;;;;;4975445;28;20020;-74
2022/04/21 04:01:08;;;;;;;;;;;7.90;78.80;;;;;;4982532;28;20432;-74
2022/04/21 04:03:35;;;;;;;;;;;7.90;78.60;;;;;;4979430;28;20444;-75
2022/04/21 04:06:01;;;;;;;;;;;7.90;79.30;;;;;;4974195;28;20460;-75
2022/04/21 04:11:14;;;;;;;;;;;7.90;79.90;;;;;;4973382;28;20300;-74
2022/04/21 04:13:41;;;;;;;;;;;7.80;80.70;;;;;;4976205;28;20343;-75
2022/04/21 04:16:09;;;;;;;;;;;7.80;81.00;;;;;;4976433;28;19987;-74
2022/04/21 04:18:35;;;;;;;;;;;7.90;81.20;;;;;;4978657;28;20351;-74
2022/04/21 04:21:02;;;;;;;;;;;7.80;81.80;;;;;;4979857;28;19933;-73
2022/04/21 04:23:30;;;;;;;;;;;7.80;82.80;;;;;;4989686;28;20522;-77
2022/04/21 04:25:57;;;;;;;;;;;7.80;83.90;;;;;;4986480;28;19926;-76
2022/04/21 04:28:23;;;;;;;;;;;7.80;84.20;;;;;;4985778;28;20315;-74
2022/04/21 04:30:50;;;;;;;;;;;7.80;83.60;;;;;;4998866;28;20405;-74
2022/04/21 04:33:19;;;;;;;;;;;7.80;84.00;;;;;;4970694;28;20403;-74
2022/04/21 04:35:46;;;;;;;;;;;7.80;85.20;;;;;;4983914;28;19933;-74
2022/04/21 04:38:14;;;;;;;;;;;7.80;84.90;;;;;;4982709;28;19934;-74
2022/04/21 04:40:42;;;;;;;;;;;7.80;85.40;;;;;;4980779;28;19926;-74
2022/04/21 04:43:08;;;;;;;;;;;7.80;86.30;;;;;;4981174;28;19925;-74
2022/04/21 04:48:18;;;;;;;;;;;7.90;85.60;;;;;;4981532;28;19940;-75
2022/04/21 04:50:46;;;;;;;;;;;7.80;86.10;;;;;;4980148;28;19926;-75
2022/04/21 04:53:14;;;;;;;;;;;7.80;86.70;;;;;;4989096;28;19982;-77
2022/04/21 04:55:41;;;;;;;;;;;7.80;87.20;;;;;;4983098;28;19926;-75
2022/04/21 04:58:08;;;;;;;;;;;7.90;87.30;;;;;;4977424;28;20020;-75
2022/04/21 05:00:35;;;;;;;;;;;7.90;87.60;;;;;;4990591;28;19925;-74
2022/04/21 05:03:02;;;;;;;;;;;7.90;87.80;;;;;;4988645;28;19926;-76
2022/04/21 05:05:29;;;;;;;;;;;7.90;88.60;;;;;;4983609;28;20037;-76
2022/04/21 05:07:55;;;;;;;;;;;7.90;88.60;;;;;;4994143;28;19926;-76
2022/04/21 05:10:23;;;;;;;;;;;7.90;88.70;;;;;;4990376;28;19933;-75
2022/04/21 05:12:51;;;;;;;;;;;7.90;89.00;;;;;;4984441;28;19926;-75
2022/04/21 05:15:18;;;;;;;;;;;8.00;89.00;;;;;;4979012;28;19926;-75
2022/04/21 05:17:45;;;;;;;;;;;8.00;89.20;;;;;;4980103;28;19933;-75
2022/04/21 05:20:12;;;;;;;;;;;8.00;89.30;;;;;;4978404;28;19944;-75
2022/04/21 05:22:40;;;;;;;;;;;8.00;89.50;;;;;;4986934;28;19961;-75
2022/04/21 05:25:09;;;;;;;;;;;8.10;89.10;;;;;;4986105;28;20029;-75
2022/04/21 05:27:38;;;;;;;;;;;8.10;88.90;;;;;;4975519;28;20428;-73
2022/04/21 05:32:53;;;;;;;;;;;8.10;89.10;;;;;;4981889;28;19937;-73
2022/04/21 05:35:20;;;;;;;;;;;8.20;88.60;;;;;;4979130;28;20041;-74
2022/04/21 05:37:47;;;;;;;;;;;8.20;88.60;;;;;;4956702;28;19937;-74
2022/04/21 05:40:14;;;;;;;;;;;8.30;88.50;;;;;;4977731;28;19936;-74
2022/04/21 05:42:45;;;;;;;;;;;8.40;87.90;;;;;;4986584;28;20016;-74
2022/04/21 05:45:14;;;;;;;;;;;8.40;87.70;;;;;;4990708;28;20248;-74
2022/04/21 05:47:41;;;;;;;;;;;8.50;87.70;;;;;;4981990;28;20382;-73
2022/04/21 05:50:09;;;;;;;;;;;8.50;87.80;;;;;;4984472;28;19926;-73
2022/04/21 05:52:37;;;;;;;;;;;8.60;87.10;;;;;;4983867;28;20009;-73
2022/04/21 05:55:05;;;;;;;;;;;8.60;87.20;;;;;;4976936;28;19932;-73
2022/04/21 05:57:32;;;;;;;;;;;8.70;85.80;;;;;;4972058;28;19933;-73
2022/04/21 05:59:59;;;;;;;;;;;8.80;85.60;;;;;;4982317;28;20035;-73
2022/04/21 06:02:27;;;;;;;;;;;8.90;85.00;;;;;;4978374;28;20083;-73
2022/04/21 06:04:59;;;;;;;;;;;8.90;85.00;;;;;;4979349;28;19937;-74
2022/04/21 06:07:25;;;;;;;;;;;9.00;84.70;;;;;;4986979;28;19937;-73
2022/04/21 06:09:52;;;;;;;;;;;9.10;83.80;;;;;;4982722;28;20312;-73
2022/04/21 06:12:19;;;;;;;;;;;9.10;82.20;;;;;;4983391;28;19930;-73
2022/04/21 06:14:46;;;;;;;;;;;9.20;82.70;;;;;;4968313;28;20033;-73
2022/04/21 06:17:12;;;;;;;;;;;9.30;80.70;;;;;;4985218;28;19992;-72
2022/04/21 06:19:40;;;;;;;;;;;9.40;79.70;;;;;;4983436;28;20318;-72
2022/04/21 06:22:07;;;;;;;;;;;9.50;79.60;;;;;;4985806;28;20025;-74
2022/04/21 06:24:35;;;;;;;;;;;9.60;79.50;;;;;;4987862;28;19929;-73
2022/04/21 06:27:03;;;;;;;;;;;9.60;77.80;;;;;;4981725;28;20357;-71
2022/04/21 06:29:30;;;;;;;;;;;9.70;77.80;;;;;;4982239;28;19926;-71
2022/04/21 06:31:57;;;;;;;;;;;9.80;77.10;;;;;;4978574;28;19961;-71
2022/04/21 06:34:24;;;;;;;;;;;9.80;75.40;;;;;;4979646;28;19960;-70
2022/04/21 06:36:52;;;;;;;;;;;9.90;75.20;;;;;;4976292;28;19930;-72
2022/04/21 06:39:18;;;;;;;;;;;10.00;73.70;;;;;;4982214;28;20450;-72
2022/04/21 06:41:45;;;;;;;;;;;10.00;72.40;;;;;;4981984;28;20407;-74
2022/04/21 06:49:36;;;;;;;;;;;10.30;71.80;;;;;;4993244;28;19926;-72
2022/04/21 06:52:05;;;;;;;;;;;10.30;69.00;;;;;;4972521;28;19926;-72
2022/04/21 06:54:32;;;;;;;;;;;10.40;70.00;;;;;;4983792;28;19934;-74
2022/04/21 06:56:58;;;;;;;;;;;10.50;68.10;;;;;;4983646;28;19926;-74
2022/04/21 06:59:25;;;;;;;;;;;10.60;68.00;;;;;;4970655;28;20008;-73
2022/04/21 07:01:52;;;;;;;;;;;10.70;66.00;;;;;;4985668;28;19936;-75
2022/04/21 07:04:20;;;;;;;;;;;10.90;65.60;;;;;;4984736;28;19957;-73
2022/04/21 07:06:46;;;;;;;;;;;11.00;64.00;;;;;;4984334;28;19926;-74
2022/04/21 07:09:15;;;;;;;;;;;11.50;62.70;;;;;;4984644;28;20436;-74
2022/04/21 07:11:43;;;;;;;;;;;12.90;54.90;;;;;;4975171;28;19930;-73
2022/04/21 07:14:10;;;;;;;;;;;13.40;50.70;;;;;;4975489;28;19944;-72
2022/04/21 07:16:36;;;;;;;;;;;14.10;47.20;;;;;;4983817;28;20324;-74
2022/04/21 07:19:03;;;;;;;;;;;14.50;44.90;;;;;;4978800;28;20007;-73
2022/04/21 07:21:30;;;;;;;;;;;14.40;43.80;;;;;;4983621;28;20395;-73
2022/04/21 07:23:56;;;;;;;;;;;15.00;42.00;;;;;;4981443;28;20407;-72
2022/04/21 07:26:24;;;;;;;;;;;15.30;39.70;;;;;;4972634;28;19932;-71
2022/04/21 07:28:51;;;;;;;;;;;15.50;38.90;;;;;;4978316;28;19941;-77
2022/04/21 07:31:18;;;;;;;;;;;15.60;38.60;;;;;;4974990;28;20470;-75
2022/04/21 07:33:44;;;;;;;;;;;15.40;37.10;;;;;;4977701;28;19942;-72
2022/04/21 07:36:11;;;;;;;;;;;15.40;36.70;;;;;;4978996;28;20780;-71
2022/04/21 07:38:38;;;;;;;;;;;15.80;36.00;;;;;;4977031;28;19953;-71
2022/04/21 07:41:04;;;;;;;;;;;15.40;35.50;;;;;;4979208;28;20388;-71
2022/04/21 07:43:34;;;;;;;;;;;16.10;35.00;;;;;;4984318;28;20016;-71
2022/04/21 07:46:01;;;;;;;;;;;15.90;31.80;;;;;;4975825;28;19938;-72
2022/04/21 07:49:44;;;;;;;;;;;15.60;32.60;;;;;;4978637;28;20275;-73
2022/04/21 07:51:14;;;;;;;;;;;16.00;31.40;;;;;;4977716;28;19941;-72
2022/04/21 07:53:40;;;;;;;;;;;16.30;31.80;;;;;;4978683;28;20052;-70
2022/04/21 07:56:06;;;;;;;;;;;16.80;29.60;;;;;;4978981;28;20017;-71
2022/04/21 07:58:34;;;;;;;;;;;16.10;29.50;;;;;;4980599;28;19936;-72
2022/04/21 08:01:01;;;;;;;;;;;16.40;29.60;;;;;;4982930;28;19926;-71
2022/04/21 08:03:35;;;;;;;;;;;17.00;28.20;;;;;;4985852;28;20273;-71
2022/04/21 08:06:01;;;;;;;;;;;17.20;27.90;;;;;;4978691;28;20003;-71
2022/04/21 08:08:28;;;;;;;;;;;17.10;27.70;;;;;;4977811;28;20013;-72
2022/04/21 08:10:55;;;;;;;;;;;17.50;26.30;;;;;;4984717;28;19926;-72
2022/04/21 08:13:23;;;;;;;;;;;17.10;26.10;;;;;;4981101;28;19929;-72
2022/04/21 08:15:52;;;;;;;;;;;16.20;28.00;;;;;;4983139;28;19932;-73
2022/04/21 08:18:19;;;;;;;;;;;16.40;26.90;;;;;;4982968;28;19930;-72
2022/04/21 08:20:46;;;;;;;;;;;16.60;27.20;;;;;;4978802;28;19934;-73
2022/04/21 08:23:13;;;;;;;;;;;16.00;26.40;;;;;;4970726;28;19934;-73
2022/04/21 08:33:53;;;;;;;;;;;17.00;25.30;;;;;;4980599;28;20003;-71
2022/04/21 08:36:19;;;;;;;;;;;16.80;23.90;;;;;;4987974;28;20021;-73
2022/04/21 08:38:47;;;;;;;;;;;16.70;23.80;;;;;;4977801;28;20023;-72
2022/04/21 08:41:18;;;;;;;;;;;17.50;23.90;;;;;;4972321;28;20296;-73
2022/04/21 08:43:46;;;;;;;;;;;17.70;23.70;;;;;;4973163;28;20010;-72
2022/04/21 08:46:17;;;;;;;;;;;17.50;23.40;;;;;;4974969;28;19937;-72
2022/04/21 08:48:47;;;;;;;;;;;18.30;22.80;;;;;;4985019;28;20029;-73
2022/04/21 08:51:14;;;;;;;;;;;17.60;22.60;;;;;;4982493;28;19927;-71
2022/04/21 08:53:42;;;;;;;;;;;17.80;23.20;;;;;;4977055;28;19926;-70
2022/04/21 08:56:10;;;;;;;;;;;17.40;23.90;;;;;;4982935;28;19929;-70
2022/04/21 08:58:37;;;;;;;;;;;18.30;22.40;;;;;;4981343;28;20009;-70
2022/04/21 09:01:03;;;;;;;;;;;18.50;23.00;;;;;;4978178;28;20409;-71
2022/04/21 09:03:33;;;;;;;;;;;17.70;23.00;;;;;;4975592;28;19927;-71
2022/04/21 09:06:00;;;;;;;;;;;17.50;23.10;;;;;;4985357;28;19926;-71
2022/04/21 09:08:27;;;;;;;;;;;17.30;22.80;;;;;;4989525;28;20012;-70
2022/04/21 09:11:04;;;;;;;;;;;17.00;23.50;;;;;;4981245;28;19934;-72
2022/04/21 09:13:31;;;;;;;;;;;18.10;22.60;;;;;;4990346;28;19930;-69
2022/04/21 09:16:01;;;;;;;;;;;19.00;20.30;;;;;;4981487;28;19950;-69
2022/04/21 09:18:38;;;;;;;;;;;18.30;21.70;;;;;;4988036;28;19982;-71
2022/04/21 09:21:10;;;;;;;;;;;17.90;21.30;;;;;;4983630;28;20349;-70
2022/04/21 09:23:37;;;;;;;;;;;18.20;21.10;;;;;;4984698;28;20021;-71
2022/04/21 09:26:08;;;;;;;;;;;18.60;21.30;;;;;;4983561;28;20359;-70
2022/04/21 09:28:35;;;;;;;;;;;18.10;20.80;;;;;;4990042;28;20017;-70
2022/04/21 09:31:02;;;;;;;;;;;19.10;21.10;;;;;;4987167;28;19936;-70
2022/04/21 09:33:29;;;;;;;;;;;17.90;21.40;;;;;;4984153;28;20029;-71
2022/04/21 09:35:56;;;;;;;;;;;17.50;21.80;;;;;;4980628;28;19976;-71
2022/04/21 09:38:24;;;;;;;;;;;17.20;22.30;;;;;;4975493;28;20041;-70
2022/04/21 09:40:51;;;;;;;;;;;17.10;22.40;;;;;;4980687;28;19995;-70
2022/04/21 09:43:26;;;;;;;;;;;16.80;22.10;;;;;;4981569;28;20037;-70
2022/04/21 09:46:10;;;;;;;;;;;17.20;21.70;;;;;;4981105;28;19930;-70
2022/04/21 09:48:37;;;;;;;;;;;17.10;22.50;;;;;;4976459;28;19934;-71
2022/04/21 09:51:08;;;;;;;;;;;17.30;23.20;;;;;;4983860;28;20164;-70
2022/04/21 09:53:48;;;;;;;;;;;17.70;21.70;;;;;;4983155;28;20024;-70
2022/04/21 09:56:15;;;;;;;;;;;17.90;21.10;;;;;;4975091;28;19966;-70
2022/04/21 09:58:42;;;;;;;;;;;17.60;21.50;;;;;;4975423;28;19927;-70
2022/04/21 10:01:08;;;;;;;;;;;17.00;22.60;;;;;;4984896;28;19979;-70
2022/04/21 10:03:35;;;;;;;;;;;16.30;23.00;;;;;;4986913;28;19926;-71
2022/04/21 10:06:02;;;;;;;;;;;16.30;23.70;;;;;;4982408;28;20320;-71
2022/04/21 10:08:30;;;;;;;;;;;16.10;23.20;;;;;;4978790;28;20385;-70
2022/04/21 10:10:58;;;;;;;;;;;16.30;24.20;;;;;;4986232;28;19926;-71
2022/04/21 10:13:24;;;;;;;;;;;16.70;23.60;;;;;;4973520;28;19948;-70
2022/04/21 10:15:51;;;;;;;;;;;16.50;20.70;;;;;;4980522;28;20337;-70
2022/04/21 10:18:19;;;;;;;;;;;16.60;22.10;;;;;;4981482;28;20020;-70
2022/04/21 10:20:46;;;;;;;;;;;16.70;21.30;;;;;;4986374;28;20414;-70
2022/04/21 10:23:16;;;;;;;;;;;16.60;21.30;;;;;;4992005;28;19925;-71
2022/04/21 10:25:43;;;;;;;;;;;17.00;20.90;;;;;;4978551;28;19930;-70
2022/04/21 10:28:29;;;;;;;;;;;16.20;21.30;;;;;;4984300;28;20338;-71
2022/04/21 10:30:58;;;;;;;;;;;16.40;22.80;;;;;;4983795;28;19933;-71
2022/04/21 10:33:52;;;;;;;;;;;16.40;21.70;;;;;;4982036;28;19925;-71
2022/04/21 10:36:33;;;;;;;;;;;16.40;21.80;;;;;;4980788;28;19930;-71
2022/04/21 10:39:12;;;;;;;;;;;16.50;21.60;;;;;;4986445;28;19969;-72
2022/04/21 10:41:39;;;;;;;;;;;16.40;20.40;;;;;;4974901;28;19973;-72
2022/04/21 10:44:13;;;;;;;;;;;16.70;20.60;;;;;;4992226;28;19933;-72
2022/04/21 10:46:41;;;;;;;;;;;16.60;21.10;;;;;;4979598;28;19926;-71
2022/04/21 10:49:09;;;;;;;;;;;16.50;21.00;;;;;;4981148;28;20419;-72
2022/04/21 10:57:46;;;;;;;;;;;16.50;20.90;;;;;;4975778;28;19981;-71
2022/04/21 11:00:23;;;;;;;;;;;16.60;17.70;;;;;;4971338;28;19996;-71
2022/04/21 11:03:01;;;;;;;;;;;16.70;18.50;;;;;;4986470;28;20024;-73
2022/04/21 11:05:31;;;;;;;;;;;17.00;19.50;;;;;;4988047;28;20403;-74
2022/04/21 11:07:58;;;;;;;;;;;16.60;20.00;;;;;;4982777;28;19926;-74
2022/04/21 11:10:29;;;;;;;;;;;16.80;19.50;;;;;;4973292;28;20013;-72
2022/04/21 11:12:55;;;;;;;;;;;16.90;19.30;;;;;;4982573;28;19926;-72
2022/04/21 11:15:32;;;;;;;;;;;17.00;19.60;;;;;;4977022;28;19926;-72
2022/04/21 11:18:01;;;;;;;;;;;16.60;20.40;;;;;;4983396;28;19926;-73
2022/04/21 11:20:28;;;;;;;;;;;16.50;20.60;;;;;;4980576;28;19933;-71
2022/04/21 11:22:55;;;;;;;;;;;17.00;19.90;;;;;;4985416;28;19925;-72
2022/04/21 11:25:22;;;;;;;;;;;17.10;18.60;;;;;;4973673;28;19930;-71
2022/04/21 11:27:49;;;;;;;;;;;16.80;20.20;;;;;;4979356;28;20470;-71
2022/04/21 11:30:16;;;;;;;;;;;16.80;19.80;;;;;;4970919;28;19926;-71
2022/04/21 11:32:51;;;;;;;;;;;16.70;18.70;;;;;;4988480;28;20026;-71
2022/04/21 11:35:21;;;;;;;;;;;16.70;18.70;;;;;;4970731;28;19980;-71
2022/04/21 11:37:55;;;;;;;;;;;17.00;19.00;;;;;;4982682;28;20384;-71
2022/04/21 11:40:23;;;;;;;;;;;16.90;18.90;;;;;;4989546;28;20445;-70
2022/04/21 11:42:50;;;;;;;;;;;17.20;20.20;;;;;;4971820;28;20297;-71
2022/04/21 11:45:21;;;;;;;;;;;17.50;18.50;;;;;;4979249;28;19926;-71
2022/04/21 11:47:47;;;;;;;;;;;17.40;16.90;;;;;;4982940;28;19926;-69
2022/04/21 11:50:19;;;;;;;;;;;17.40;16.10;;;;;;4978684;28;19930;-69
2022/04/21 11:52:47;;;;;;;;;;;17.60;17.40;;;;;;4982907;28;19944;-70
2022/04/21 11:55:15;;;;;;;;;;;17.20;16.70;;;;;;4971974;28;19949;-71
2022/04/21 11:57:42;;;;;;;;;;;17.30;17.50;;;;;;4976083;28;20387;-71
2022/04/21 12:00:10;;;;;;;;;;;17.10;18.10;;;;;;4979199;28;19932;-70
2022/04/21 12:08:07;;;;;;;;;;;17.60;16.20;;;;;;4985471;28;19933;-69
2022/04/21 12:10:34;;;;;;;;;;;17.40;17.90;;;;;;4986788;28;19929;-69
2022/04/21 12:13:02;;;;;;;;;;;17.70;16.40;;;;;;4973994;28;19971;-70
2022/04/21 12:15:29;;;;;;;;;;;17.70;15.70;;;;;;4970937;28;19930;-69
2022/04/21 12:17:58;;;;;;;;;;;17.60;16.20;;;;;;4984721;28;19977;-69
2022/04/21 12:20:26;;;;;;;;;;;18.00;17.70;;;;;;4980775;28;19929;-68
2022/04/21 12:22:53;;;;;;;;;;;18.10;17.40;;;;;;4977073;28;20025;-69
2022/04/21 12:25:20;;;;;;;;;;;18.00;16.80;;;;;;4975963;28;20304;-69
2022/04/21 12:27:46;;;;;;;;;;;18.20;17.90;;;;;;4981280;28;19925;-69
2022/04/21 12:30:13;;;;;;;;;;;17.90;16.20;;;;;;4980696;28;20377;-69
2022/04/21 12:32:41;;;;;;;;;;;18.20;16.00;;;;;;4985279;28;20446;-70
2022/04/21 12:35:08;;;;;;;;;;;17.50;15.40;;;;;;4982846;28;19925;-70
2022/04/21 12:37:37;;;;;;;;;;;17.50;15.60;;;;;;4978060;28;20582;-71
2022/04/21 12:40:05;;;;;;;;;;;17.50;17.00;;;;;;4977400;28;19932;-69
2022/04/21 12:42:32;;;;;;;;;;;18.00;16.50;;;;;;4979477;28;19973;-70
2022/04/21 12:44:58;;;;;;;;;;;18.20;17.10;;;;;;4977144;28;19977;-68
2022/04/21 12:47:25;;;;;;;;;;;18.00;16.80;;;;;;4975609;28;20285;-67
2022/04/21 12:49:53;;;;;;;;;;;17.90;12.50;;;;;;4973939;28;19926;-67
2022/04/21 12:52:33;;;;;;;;;;;17.80;14.00;;;;;;4968930;28;19933;-68
2022/04/21 12:55:01;;;;;;;;;;;17.90;14.70;;;;;;4981290;28;21403;-68
2022/04/21 12:57:28;;;;;;;;;;;17.80;9.10;;;;;;4986309;28;20012;-68
2022/04/21 12:59:55;;;;;;;;;;;17.80;11.60;;;;;;4972725;28;19972;-66
2022/04/21 13:02:21;;;;;;;;;;;18.00;11.00;;;;;;4980349;28;20404;-69
2022/04/21 13:04:48;;;;;;;;;;;18.40;11.50;;;;;;4971162;28;20403;-69
2022/04/21 13:07:15;;;;;;;;;;;18.30;11.60;;;;;;4974045;28;19928;-69
2022/04/21 13:09:42;;;;;;;;;;;18.20;14.00;;;;;;4977546;28;19926;-69
2022/04/21 13:12:10;;;;;;;;;;;18.00;13.40;;;;;;4979204;28;20020;-70
2022/04/21 13:14:37;;;;;;;;;;;18.30;13.70;;;;;;4986958;28;20020;-68
2022/04/21 13:17:05;;;;;;;;;;;18.30;13.90;;;;;;4973740;28;20380;-69
2022/04/21 13:19:32;;;;;;;;;;;17.90;13.30;;;;;;4977591;28;20434;-67
2022/04/21 13:21:59;;;;;;;;;;;17.90;13.00;;;;;;4979505;28;19941;-68
2022/04/21 13:24:26;;;;;;;;;;;18.10;14.50;;;;;;4981248;28;20377;-68
2022/04/21 13:26:53;;;;;;;;;;;18.30;13.00;;;;;;4978626;28;20017;-70
2022/04/21 13:29:21;;;;;;;;;;;18.10;13.60;;;;;;4973769;28;19945;-70
2022/04/21 13:34:33;;;;;;;;;;;18.30;14.10;;;;;;4976126;28;20347;-70
2022/04/21 13:37:00;;;;;;;;;;;18.40;7.40;;;;;;4984659;28;19926;-70
2022/04/21 13:39:27;;;;;;;;;;;18.70;5.10;;;;;;4982840;28;20021;-69
2022/04/21 13:41:54;;;;;;;;;;;18.70;5.90;;;;;;4977988;28;19948;-69
2022/04/21 13:44:22;;;;;;;;;;;18.70;6.30;;;;;;4983018;28;19933;-69
2022/04/21 13:46:49;;;;;;;;;;;18.70;6.10;;;;;;4981570;28;20322;-70
2022/04/21 13:49:16;;;;;;;;;;;18.70;5.30;;;;;;4982746;28;19937;-69
2022/04/21 13:51:42;;;;;;;;;;;18.80;6.20;;;;;;4979967;28;20016;-69
2022/04/21 13:54:10;;;;;;;;;;;18.90;6.40;;;;;;4975876;28;19941;-69
2022/04/21 13:56:36;;;;;;;;;;;18.70;7.10;;;;;;4978961;28;20345;-69
2022/04/21 13:59:04;;;;;;;;;;;18.70;6.10;;;;;;4978045;28;19929;-70
2022/04/21 14:01:32;;;;;;;;;;;18.70;8.30;;;;;;4985958;28;19988;-71
2022/04/21 14:03:58;;;;;;;;;;;19.00;7.90;;;;;;4985369;28;19926;-68
2022/04/21 14:06:25;;;;;;;;;;;19.00;5.50;;;;;;4977791;28;20012;-69
2022/04/21 14:08:52;;;;;;;;;;;18.90;9.30;;;;;;4978342;28;19930;-70
2022/04/21 14:11:20;;;;;;;;;;;18.80;9.40;;;;;;4974224;28;19936;-70
2022/04/21 14:13:47;;;;;;;;;;;18.50;9.10;;;;;;4977014;28;19930;-70
2022/04/21 14:16:14;;;;;;;;;;;18.50;9.40;;;;;;4980439;28;19952;-72
2022/04/21 14:18:42;;;;;;;;;;;18.60;8.50;;;;;;4979087;28;20013;-70
2022/04/21 14:21:09;;;;;;;;;;;18.20;9.00;;;;;;4980643;28;20087;-68
2022/04/21 14:23:37;;;;;;;;;;;18.50;8.70;;;;;;4984117;28;19934;-70
2022/04/21 14:26:06;;;;;;;;;;;18.40;7.80;;;;;;4984130;28;19929;-70
2022/04/21 14:28:34;;;;;;;;;;;18.60;7.10;;;;;;4971518;28;20203;-73
2022/04/21 14:31:00;;;;;;;;;;;18.50;6.70;;;;;;4971211;28;19937;-72
2022/04/21 14:33:27;;;;;;;;;;;18.10;7.00;;;;;;4967756;28;20422;-70
2022/04/21 14:35:55;;;;;;;;;;;18.60;6.70;;;;;;4974709;28;20405;-69
2022/04/21 14:44:07;;;;;;;;;;;18.40;5.70;;;;;;4980139;28;20538;-70
2022/04/21 14:46:35;;;;;;;;;;;18.20;6.10;;;;;;4983054;28;19934;-70
2022/04/21 14:49:02;;;;;;;;;;;18.40;6.50;;;;;;4978824;28;20210;-69
2022/04/21 14:51:31;;;;;;;;;;;18.60;5.40;;;;;;4979279;28;19926;-69
2022/04/21 14:53:58;;;;;;;;;;;18.60;6.70;;;;;;4977173;28;20011;-69
2022/04/21 14:56:26;;;;;;;;;;;18.30;6.10;;;;;;4979354;28;19932;-69
2022/04/21 14:58:53;;;;;;;;;;;18.30;5.50;;;;;;4971847;28;20013;-70
2022/04/21 15:01:20;;;;;;;;;;;18.30;5.60;;;;;;4973082;28;20013;-68
2022/04/21 15:03:46;;;;;;;;;;;18.40;6.10;;;;;;4982923;28;19972;-70
2022/04/21 15:06:16;;;;;;;;;;;18.60;6.90;;;;;;4983282;28;20392;-70
2022/04/21 15:08:44;;;;;;;;;;;18.60;6.80;;;;;;4975261;28;19977;-69
2022/04/21 15:11:11;;;;;;;;;;;18.30;5.90;;;;;;4977049;28;20427;-69
2022/04/21 15:13:38;;;;;;;;;;;18.40;6.10;;;;;;4973324;28;19932;-69
2022/04/21 15:16:05;;;;;;;;;;;18.80;6.80;;;;;;4984309;28;19940;-67
2022/04/21 15:18:31;;;;;;;;;;;19.00;7.00;;;;;;4973608;28;19965;-69
2022/04/21 15:21:01;;;;;;;;;;;18.70;6.20;;;;;;4980574;28;20007;-70
2022/04/21 15:23:27;;;;;;;;;;;18.60;6.80;;;;;;4981910;28;19926;-70
2022/04/21 15:25:55;;;;;;;;;;;18.70;8.70;;;;;;4986171;28;20020;-70
2022/04/21 15:28:24;;;;;;;;;;;18.50;6.70;;;;;;4978620;28;19926;-70